ΕΜΥ, Εθνική Μετεωρολογική Υπηρεσία - Δελτία Καιρού, Προγνώσεις

ΑΕΡΟΝΑΥΤΙΛΙΑ

GREEK AIRPORTS CODES

LGBL 260720Z 01007KT 9999 FEW020TCU SCT035 BKN080 20/11 Q1019 RMK FEW180=

EUROPEAN AIRPORTS CODES

LKPR 260730Z 34012KT 9999 SCT020 12/07 Q1032 NOSIG=